sensor_id;sensor_type;location;lat;lon;timestamp;temperature;humidity
26907;DHT22;14472;56.880;16.658;2023-08-12T00:00:33;16.80;99.90
26907;DHT22;14472;56.880;16.658;2023-08-12T00:02:59;16.80;99.90
26907;DHT22;14472;56.880;16.658;2023-08-12T00:05:25;16.80;99.90
26907;DHT22;14472;56.880;16.658;2023-08-12T00:07:51;16.80;99.90
26907;DHT22;14472;56.880;16.658;2023-08-12T00:10:16;16.80;99.90
26907;DHT22;14472;56.880;16.658;2023-08-12T00:12:42;16.80;99.90
26907;DHT22;14472;56.880;16.658;2023-08-12T00:15:09;16.80;99.90
26907;DHT22;14472;56.880;16.658;2023-08-12T00:17:36;16.80;99.90
26907;DHT22;14472;56.880;16.658;2023-08-12T00:20:04;16.80;99.90
26907;DHT22;14472;56.880;16.658;2023-08-12T00:22:34;16.70;99.90
26907;DHT22;14472;56.880;16.658;2023-08-12T00:25:00;16.70;99.90
26907;DHT22;14472;56.880;16.658;2023-08-12T00:27:26;16.70;99.90
26907;DHT22;14472;56.880;16.658;2023-08-12T00:29:52;16.70;99.90
26907;DHT22;14472;56.880;16.658;2023-08-12T00:32:18;16.70;99.90
26907;DHT22;14472;56.880;16.658;2023-08-12T00:34:44;16.70;99.90
26907;DHT22;14472;56.880;16.658;2023-08-12T00:37:10;16.70;99.90
26907;DHT22;14472;56.880;16.658;2023-08-12T00:39:35;16.70;99.90
26907;DHT22;14472;56.880;16.658;2023-08-12T00:42:01;16.70;99.90
26907;DHT22;14472;56.880;16.658;2023-08-12T00:44:27;16.60;99.90
26907;DHT22;14472;56.880;16.658;2023-08-12T00:46:52;16.60;99.90
26907;DHT22;14472;56.880;16.658;2023-08-12T00:49:20;16.60;99.90
26907;DHT22;14472;56.880;16.658;2023-08-12T00:51:49;16.60;99.90
26907;DHT22;14472;56.880;16.658;2023-08-12T00:54:16;16.60;99.90
26907;DHT22;14472;56.880;16.658;2023-08-12T00:56:43;16.50;99.90
26907;DHT22;14472;56.880;16.658;2023-08-12T00:59:09;16.50;99.90
26907;DHT22;14472;56.880;16.658;2023-08-12T01:01:39;16.50;99.90
26907;DHT22;14472;56.880;16.658;2023-08-12T01:04:06;16.40;99.90
26907;DHT22;14472;56.880;16.658;2023-08-12T01:06:32;16.40;99.90
26907;DHT22;14472;56.880;16.658;2023-08-12T01:08:59;16.40;99.90
26907;DHT22;14472;56.880;16.658;2023-08-12T01:11:46;16.40;99.90
26907;DHT22;14472;56.880;16.658;2023-08-12T01:15:01;16.40;99.90
26907;DHT22;14472;56.880;16.658;2023-08-12T01:17:09;16.30;99.90
26907;DHT22;14472;56.880;16.658;2023-08-12T01:19:39;16.30;99.90
26907;DHT22;14472;56.880;16.658;2023-08-12T01:22:08;16.30;99.90
26907;DHT22;14472;56.880;16.658;2023-08-12T01:24:35;16.30;99.90
26907;DHT22;14472;56.880;16.658;2023-08-12T01:27:02;16.30;99.90
26907;DHT22;14472;56.880;16.658;2023-08-12T01:29:27;16.30;99.90
26907;DHT22;14472;56.880;16.658;2023-08-12T01:35:38;16.20;99.90
26907;DHT22;14472;56.880;16.658;2023-08-12T01:37:38;16.20;99.90
26907;DHT22;14472;56.880;16.658;2023-08-12T01:40:05;16.20;99.90
26907;DHT22;14472;56.880;16.658;2023-08-12T01:42:33;16.20;99.90
26907;DHT22;14472;56.880;16.658;2023-08-12T01:44:59;16.20;99.90
26907;DHT22;14472;56.880;16.658;2023-08-12T01:47:30;16.20;99.90
26907;DHT22;14472;56.880;16.658;2023-08-12T01:49:56;16.20;99.90
26907;DHT22;14472;56.880;16.658;2023-08-12T01:52:22;16.20;99.90
26907;DHT22;14472;56.880;16.658;2023-08-12T01:54:48;16.20;99.90
26907;DHT22;14472;56.880;16.658;2023-08-12T01:57:13;16.20;99.90
26907;DHT22;14472;56.880;16.658;2023-08-12T01:59:39;16.20;99.90
26907;DHT22;14472;56.880;16.658;2023-08-12T02:02:05;16.20;99.90
26907;DHT22;14472;56.880;16.658;2023-08-12T02:04:31;16.20;99.90
26907;DHT22;14472;56.880;16.658;2023-08-12T02:06:57;16.20;99.90
26907;DHT22;14472;56.880;16.658;2023-08-12T02:09:23;16.20;99.90
26907;DHT22;14472;56.880;16.658;2023-08-12T02:11:49;16.20;99.90
26907;DHT22;14472;56.880;16.658;2023-08-12T02:14:15;16.10;99.90
26907;DHT22;14472;56.880;16.658;2023-08-12T02:16:41;16.10;99.90
26907;DHT22;14472;56.880;16.658;2023-08-12T02:19:07;16.10;99.90
26907;DHT22;14472;56.880;16.658;2023-08-12T02:21:33;16.10;99.90
26907;DHT22;14472;56.880;16.658;2023-08-12T02:23:58;16.10;99.90
26907;DHT22;14472;56.880;16.658;2023-08-12T02:26:24;16.10;99.90
26907;DHT22;14472;56.880;16.658;2023-08-12T02:28:50;16.10;99.90
26907;DHT22;14472;56.880;16.658;2023-08-12T02:31:16;16.10;99.90
26907;DHT22;14472;56.880;16.658;2023-08-12T02:33:42;16.00;99.90
26907;DHT22;14472;56.880;16.658;2023-08-12T02:36:08;16.00;99.90
26907;DHT22;14472;56.880;16.658;2023-08-12T02:38:34;16.10;99.90
26907;DHT22;14472;56.880;16.658;2023-08-12T02:41:00;16.00;99.90
26907;DHT22;14472;56.880;16.658;2023-08-12T02:43:26;16.10;99.90
26907;DHT22;14472;56.880;16.658;2023-08-12T02:45:52;16.00;99.90
26907;DHT22;14472;56.880;16.658;2023-08-12T02:48:17;16.00;99.90
26907;DHT22;14472;56.880;16.658;2023-08-12T02:50:43;16.00;99.90
26907;DHT22;14472;56.880;16.658;2023-08-12T02:53:09;16.00;99.90
26907;DHT22;14472;56.880;16.658;2023-08-12T02:55:35;16.00;99.90
26907;DHT22;14472;56.880;16.658;2023-08-12T02:58:03;16.00;99.90
26907;DHT22;14472;56.880;16.658;2023-08-12T03:00:29;16.00;99.90
26907;DHT22;14472;56.880;16.658;2023-08-12T03:02:55;15.90;99.90
26907;DHT22;14472;56.880;16.658;2023-08-12T03:05:21;16.00;99.90
26907;DHT22;14472;56.880;16.658;2023-08-12T03:07:47;16.00;99.90
26907;DHT22;14472;56.880;16.658;2023-08-12T03:10:13;16.00;99.90
26907;DHT22;14472;56.880;16.658;2023-08-12T03:12:39;15.90;99.90
26907;DHT22;14472;56.880;16.658;2023-08-12T03:15:08;15.90;99.90
26907;DHT22;14472;56.880;16.658;2023-08-12T03:17:34;15.90;99.90
26907;DHT22;14472;56.880;16.658;2023-08-12T03:20:00;15.90;99.90
26907;DHT22;14472;56.880;16.658;2023-08-12T03:22:27;15.90;99.90
26907;DHT22;14472;56.880;16.658;2023-08-12T03:24:53;15.90;99.90
26907;DHT22;14472;56.880;16.658;2023-08-12T03:27:18;15.90;99.90
26907;DHT22;14472;56.880;16.658;2023-08-12T03:29:44;15.90;99.90
26907;DHT22;14472;56.880;16.658;2023-08-12T03:32:10;15.90;99.90
26907;DHT22;14472;56.880;16.658;2023-08-12T03:34:36;15.90;99.90
26907;DHT22;14472;56.880;16.658;2023-08-12T03:37:02;15.90;99.90
26907;DHT22;14472;56.880;16.658;2023-08-12T03:39:27;15.90;99.90
26907;DHT22;14472;56.880;16.658;2023-08-12T03:41:53;15.90;99.90
26907;DHT22;14472;56.880;16.658;2023-08-12T03:44:19;16.00;99.90
26907;DHT22;14472;56.880;16.658;2023-08-12T03:46:45;16.00;99.90
26907;DHT22;14472;56.880;16.658;2023-08-12T03:49:10;16.00;99.90
26907;DHT22;14472;56.880;16.658;2023-08-12T03:51:36;16.00;99.90
26907;DHT22;14472;56.880;16.658;2023-08-12T03:54:02;16.00;99.90
26907;DHT22;14472;56.880;16.658;2023-08-12T03:56:29;16.10;99.90
26907;DHT22;14472;56.880;16.658;2023-08-12T03:58:55;16.10;99.90
26907;DHT22;14472;56.880;16.658;2023-08-12T04:01:20;16.10;99.90
26907;DHT22;14472;56.880;16.658;2023-08-12T04:03:47;16.10;99.90
26907;DHT22;14472;56.880;16.658;2023-08-12T04:06:13;16.20;99.90
26907;DHT22;14472;56.880;16.658;2023-08-12T04:08:38;16.10;99.90
26907;DHT22;14472;56.880;16.658;2023-08-12T04:11:04;16.20;99.90
26907;DHT22;14472;56.880;16.658;2023-08-12T04:13:30;16.20;99.90
26907;DHT22;14472;56.880;16.658;2023-08-12T04:15:56;16.20;99.90
26907;DHT22;14472;56.880;16.658;2023-08-12T04:18:22;16.20;99.90
26907;DHT22;14472;56.880;16.658;2023-08-12T04:20:52;16.20;99.90
26907;DHT22;14472;56.880;16.658;2023-08-12T04:23:18;16.30;99.90
26907;DHT22;14472;56.880;16.658;2023-08-12T04:25:45;16.20;99.90
26907;DHT22;14472;56.880;16.658;2023-08-12T04:28:12;16.30;99.90
26907;DHT22;14472;56.880;16.658;2023-08-12T04:30:42;16.30;99.90
26907;DHT22;14472;56.880;16.658;2023-08-12T04:33:08;16.30;99.90
26907;DHT22;14472;56.880;16.658;2023-08-12T04:35:34;16.30;99.90
26907;DHT22;14472;56.880;16.658;2023-08-12T04:37:59;16.30;99.90
26907;DHT22;14472;56.880;16.658;2023-08-12T04:40:25;16.40;99.90
26907;DHT22;14472;56.880;16.658;2023-08-12T04:42:51;16.40;99.90
26907;DHT22;14472;56.880;16.658;2023-08-12T04:45:17;16.40;99.90
26907;DHT22;14472;56.880;16.658;2023-08-12T04:47:42;16.40;99.90
26907;DHT22;14472;56.880;16.658;2023-08-12T04:50:08;16.40;99.90
26907;DHT22;14472;56.880;16.658;2023-08-12T04:52:34;16.40;99.90
26907;DHT22;14472;56.880;16.658;2023-08-12T04:55:00;16.50;99.90
26907;DHT22;14472;56.880;16.658;2023-08-12T04:57:26;16.50;99.90
26907;DHT22;14472;56.880;16.658;2023-08-12T04:59:52;16.50;99.90
26907;DHT22;14472;56.880;16.658;2023-08-12T05:02:18;16.50;99.90
26907;DHT22;14472;56.880;16.658;2023-08-12T05:04:50;16.50;99.90
26907;DHT22;14472;56.880;16.658;2023-08-12T05:07:16;16.60;99.90
26907;DHT22;14472;56.880;16.658;2023-08-12T05:09:42;16.60;99.90
26907;DHT22;14472;56.880;16.658;2023-08-12T05:12:11;16.60;99.90
26907;DHT22;14472;56.880;16.658;2023-08-12T05:14:38;16.60;99.90
26907;DHT22;14472;56.880;16.658;2023-08-12T05:17:05;16.70;99.90
26907;DHT22;14472;56.880;16.658;2023-08-12T05:19:31;16.70;99.90
26907;DHT22;14472;56.880;16.658;2023-08-12T05:21:57;16.70;99.90
26907;DHT22;14472;56.880;16.658;2023-08-12T05:24:22;16.80;99.90
26907;DHT22;14472;56.880;16.658;2023-08-12T05:26:48;16.80;99.90
26907;DHT22;14472;56.880;16.658;2023-08-12T05:29:14;16.80;99.90
26907;DHT22;14472;56.880;16.658;2023-08-12T05:31:40;16.80;99.90
26907;DHT22;14472;56.880;16.658;2023-08-12T05:34:05;16.90;99.90
26907;DHT22;14472;56.880;16.658;2023-08-12T05:36:31;16.90;99.90
26907;DHT22;14472;56.880;16.658;2023-08-12T05:38:57;16.90;99.90
26907;DHT22;14472;56.880;16.658;2023-08-12T05:41:22;16.90;99.90
26907;DHT22;14472;56.880;16.658;2023-08-12T05:43:48;16.90;99.90
26907;DHT22;14472;56.880;16.658;2023-08-12T05:46:14;17.00;99.90
26907;DHT22;14472;56.880;16.658;2023-08-12T05:48:40;17.00;99.90
26907;DHT22;14472;56.880;16.658;2023-08-12T05:51:06;17.00;99.90
26907;DHT22;14472;56.880;16.658;2023-08-12T05:53:32;17.10;99.90
26907;DHT22;14472;56.880;16.658;2023-08-12T05:55:58;17.10;99.90
26907;DHT22;14472;56.880;16.658;2023-08-12T05:58:24;17.10;99.90
26907;DHT22;14472;56.880;16.658;2023-08-12T06:00:50;17.10;99.90
26907;DHT22;14472;56.880;16.658;2023-08-12T06:03:16;17.20;99.90
26907;DHT22;14472;56.880;16.658;2023-08-12T06:05:45;17.20;99.90
26907;DHT22;14472;56.880;16.658;2023-08-12T06:08:11;17.20;99.90
26907;DHT22;14472;56.880;16.658;2023-08-12T06:10:37;17.30;99.90
26907;DHT22;14472;56.880;16.658;2023-08-12T06:13:03;17.40;99.90
26907;DHT22;14472;56.880;16.658;2023-08-12T06:15:29;17.40;99.90
26907;DHT22;14472;56.880;16.658;2023-08-12T06:17:54;17.40;99.90
26907;DHT22;14472;56.880;16.658;2023-08-12T06:20:20;17.50;99.90
26907;DHT22;14472;56.880;16.658;2023-08-12T06:22:46;17.50;99.90
26907;DHT22;14472;56.880;16.658;2023-08-12T06:25:12;17.60;99.90
26907;DHT22;14472;56.880;16.658;2023-08-12T06:27:38;17.60;99.90
26907;DHT22;14472;56.880;16.658;2023-08-12T06:30:04;17.70;99.90
26907;DHT22;14472;56.880;16.658;2023-08-12T06:32:33;17.80;99.90
26907;DHT22;14472;56.880;16.658;2023-08-12T06:34:58;17.90;99.90
26907;DHT22;14472;56.880;16.658;2023-08-12T06:37:24;17.90;99.90
26907;DHT22;14472;56.880;16.658;2023-08-12T06:39:50;18.00;99.90
26907;DHT22;14472;56.880;16.658;2023-08-12T06:42:16;18.10;99.90
26907;DHT22;14472;56.880;16.658;2023-08-12T06:44:41;18.20;99.90
26907;DHT22;14472;56.880;16.658;2023-08-12T06:47:07;18.20;99.90
26907;DHT22;14472;56.880;16.658;2023-08-12T06:49:33;18.30;99.90
26907;DHT22;14472;56.880;16.658;2023-08-12T06:51:59;18.30;97.10
26907;DHT22;14472;56.880;16.658;2023-08-12T06:54:24;18.40;97.10
26907;DHT22;14472;56.880;16.658;2023-08-12T06:56:50;18.50;91.20
26907;DHT22;14472;56.880;16.658;2023-08-12T06:59:16;18.70;94.30
26907;DHT22;14472;56.880;16.658;2023-08-12T07:01:42;18.80;93.10
26907;DHT22;14472;56.880;16.658;2023-08-12T07:04:08;18.80;90.70
26907;DHT22;14472;56.880;16.658;2023-08-12T07:06:34;18.90;82.20
26907;DHT22;14472;56.880;16.658;2023-08-12T07:08:59;18.90;79.60
26907;DHT22;14472;56.880;16.658;2023-08-12T07:11:25;19.10;75.30
26907;DHT22;14472;56.880;16.658;2023-08-12T07:13:51;19.10;58.80
26907;DHT22;14472;56.880;16.658;2023-08-12T07:16:17;19.20;52.70
26907;DHT22;14472;56.880;16.658;2023-08-12T07:18:42;19.30;37.90
26907;DHT22;14472;56.880;16.658;2023-08-12T07:21:08;19.30;32.20
26907;DHT22;14472;56.880;16.658;2023-08-12T07:23:34;19.40;26.00
26907;DHT22;14472;56.880;16.658;2023-08-12T07:26:00;19.40;21.00
26907;DHT22;14472;56.880;16.658;2023-08-12T07:28:25;19.40;13.80
26907;DHT22;14472;56.880;16.658;2023-08-12T07:30:51;19.50;8.20
26907;DHT22;14472;56.880;16.658;2023-08-12T07:33:19;19.50;1.00
26907;DHT22;14472;56.880;16.658;2023-08-12T07:35:45;19.60;1.00
26907;DHT22;14472;56.880;16.658;2023-08-12T07:38:11;19.60;1.00
26907;DHT22;14472;56.880;16.658;2023-08-12T07:40:36;19.70;1.00
26907;DHT22;14472;56.880;16.658;2023-08-12T07:43:02;19.80;1.00
26907;DHT22;14472;56.880;16.658;2023-08-12T07:45:29;19.80;1.00
26907;DHT22;14472;56.880;16.658;2023-08-12T07:47:54;19.90;1.00
26907;DHT22;14472;56.880;16.658;2023-08-12T07:50:20;20.00;1.00
26907;DHT22;14472;56.880;16.658;2023-08-12T07:52:46;20.00;1.00
26907;DHT22;14472;56.880;16.658;2023-08-12T07:55:12;20.10;1.00
26907;DHT22;14472;56.880;16.658;2023-08-12T07:57:38;20.20;1.00
26907;DHT22;14472;56.880;16.658;2023-08-12T08:00:04;20.20;1.00
26907;DHT22;14472;56.880;16.658;2023-08-12T08:02:30;20.30;1.00
26907;DHT22;14472;56.880;16.658;2023-08-12T08:04:56;20.30;1.00
26907;DHT22;14472;56.880;16.658;2023-08-12T08:07:22;20.40;1.00
26907;DHT22;14472;56.880;16.658;2023-08-12T08:09:48;20.40;1.00
26907;DHT22;14472;56.880;16.658;2023-08-12T08:12:13;20.50;1.00
26907;DHT22;14472;56.880;16.658;2023-08-12T08:14:39;20.60;1.00
26907;DHT22;14472;56.880;16.658;2023-08-12T08:17:05;20.60;1.00
26907;DHT22;14472;56.880;16.658;2023-08-12T08:19:31;20.70;1.00
26907;DHT22;14472;56.880;16.658;2023-08-12T08:21:57;20.70;1.00
26907;DHT22;14472;56.880;16.658;2023-08-12T08:24:24;20.70;1.00
26907;DHT22;14472;56.880;16.658;2023-08-12T08:26:49;20.80;1.00
26907;DHT22;14472;56.880;16.658;2023-08-12T08:29:15;20.70;1.00
26907;DHT22;14472;56.880;16.658;2023-08-12T08:31:41;20.70;1.00
26907;DHT22;14472;56.880;16.658;2023-08-12T08:34:06;20.70;1.00
26907;DHT22;14472;56.880;16.658;2023-08-12T08:36:32;20.70;1.00
26907;DHT22;14472;56.880;16.658;2023-08-12T08:38:58;20.80;1.00
26907;DHT22;14472;56.880;16.658;2023-08-12T08:41:24;20.90;1.00
26907;DHT22;14472;56.880;16.658;2023-08-12T08:43:52;20.90;1.00
26907;DHT22;14472;56.880;16.658;2023-08-12T08:46:20;20.90;1.00
26907;DHT22;14472;56.880;16.658;2023-08-12T08:48:46;20.90;1.00
26907;DHT22;14472;56.880;16.658;2023-08-12T08:51:14;20.90;1.00
26907;DHT22;14472;56.880;16.658;2023-08-12T08:53:40;21.00;1.00
26907;DHT22;14472;56.880;16.658;2023-08-12T08:56:07;21.00;1.00
26907;DHT22;14472;56.880;16.658;2023-08-12T08:58:34;21.00;1.00
26907;DHT22;14472;56.880;16.658;2023-08-12T09:01:00;21.10;1.00
26907;DHT22;14472;56.880;16.658;2023-08-12T09:03:27;21.10;1.00
26907;DHT22;14472;56.880;16.658;2023-08-12T09:05:55;21.20;1.00
26907;DHT22;14472;56.880;16.658;2023-08-12T09:08:22;21.20;1.00
26907;DHT22;14472;56.880;16.658;2023-08-12T09:10:49;21.20;1.00
26907;DHT22;14472;56.880;16.658;2023-08-12T09:13:15;21.30;1.00
26907;DHT22;14472;56.880;16.658;2023-08-12T09:15:42;21.30;1.00
26907;DHT22;14472;56.880;16.658;2023-08-12T09:18:08;21.50;1.00
26907;DHT22;14472;56.880;16.658;2023-08-12T09:20:34;21.50;1.00
26907;DHT22;14472;56.880;16.658;2023-08-12T09:23:02;21.50;1.00
26907;DHT22;14472;56.880;16.658;2023-08-12T09:25:29;21.60;1.00
26907;DHT22;14472;56.880;16.658;2023-08-12T09:27:58;21.60;1.00
26907;DHT22;14472;56.880;16.658;2023-08-12T09:30:24;21.70;1.00
26907;DHT22;14472;56.880;16.658;2023-08-12T09:33:04;21.80;1.00
26907;DHT22;14472;56.880;16.658;2023-08-12T09:35:37;21.90;1.00
26907;DHT22;14472;56.880;16.658;2023-08-12T09:38:13;22.00;1.00
26907;DHT22;14472;56.880;16.658;2023-08-12T09:40:39;22.00;1.00
26907;DHT22;14472;56.880;16.658;2023-08-12T09:43:05;22.10;1.00
26907;DHT22;14472;56.880;16.658;2023-08-12T09:45:32;22.10;1.00
26907;DHT22;14472;56.880;16.658;2023-08-12T09:47:58;22.20;1.00
26907;DHT22;14472;56.880;16.658;2023-08-12T09:50:25;22.30;1.00
26907;DHT22;14472;56.880;16.658;2023-08-12T09:52:52;22.30;1.00
26907;DHT22;14472;56.880;16.658;2023-08-12T09:55:20;22.30;1.00
26907;DHT22;14472;56.880;16.658;2023-08-12T09:57:51;22.40;1.00
26907;DHT22;14472;56.880;16.658;2023-08-12T10:00:18;22.40;1.00
26907;DHT22;14472;56.880;16.658;2023-08-12T10:02:46;22.40;1.00
26907;DHT22;14472;56.880;16.658;2023-08-12T10:05:15;22.40;1.00
26907;DHT22;14472;56.880;16.658;2023-08-12T10:07:43;22.40;1.00
26907;DHT22;14472;56.880;16.658;2023-08-12T10:10:11;22.50;1.00
26907;DHT22;14472;56.880;16.658;2023-08-12T10:12:38;22.50;1.00
26907;DHT22;14472;56.880;16.658;2023-08-12T10:15:08;22.60;1.00
26907;DHT22;14472;56.880;16.658;2023-08-12T10:17:35;22.60;1.00
26907;DHT22;14472;56.880;16.658;2023-08-12T10:20:03;22.70;1.00
26907;DHT22;14472;56.880;16.658;2023-08-12T10:22:30;22.70;1.00
26907;DHT22;14472;56.880;16.658;2023-08-12T10:25:01;22.80;1.00
26907;DHT22;14472;56.880;16.658;2023-08-12T10:27:28;22.90;1.00
26907;DHT22;14472;56.880;16.658;2023-08-12T10:29:56;22.80;1.00
26907;DHT22;14472;56.880;16.658;2023-08-12T10:32:22;22.90;1.00
26907;DHT22;14472;56.880;16.658;2023-08-12T10:34:54;22.90;1.00
26907;DHT22;14472;56.880;16.658;2023-08-12T10:37:21;22.90;1.00
26907;DHT22;14472;56.880;16.658;2023-08-12T10:39:48;22.90;1.00
26907;DHT22;14472;56.880;16.658;2023-08-12T10:45:14;22.90;1.00
26907;DHT22;14472;56.880;16.658;2023-08-12T10:48:37;22.90;1.00
26907;DHT22;14472;56.880;16.658;2023-08-12T10:50:44;22.90;1.00
26907;DHT22;14472;56.880;16.658;2023-08-12T10:53:37;22.90;1.00
26907;DHT22;14472;56.880;16.658;2023-08-12T10:56:04;23.00;1.00
26907;DHT22;14472;56.880;16.658;2023-08-12T10:58:46;22.90;1.00
26907;DHT22;14472;56.880;16.658;2023-08-12T11:01:19;22.90;1.00
26907;DHT22;14472;56.880;16.658;2023-08-12T11:03:47;22.90;1.00
26907;DHT22;14472;56.880;16.658;2023-08-12T11:06:13;23.00;1.00
26907;DHT22;14472;56.880;16.658;2023-08-12T11:08:52;23.00;1.00
26907;DHT22;14472;56.880;16.658;2023-08-12T11:11:25;23.10;1.00
26907;DHT22;14472;56.880;16.658;2023-08-12T11:13:56;23.10;1.00
26907;DHT22;14472;56.880;16.658;2023-08-12T11:16:34;23.20;1.00
26907;DHT22;14472;56.880;16.658;2023-08-12T11:19:01;23.10;1.00
26907;DHT22;14472;56.880;16.658;2023-08-12T11:21:28;23.20;1.00
26907;DHT22;14472;56.880;16.658;2023-08-12T11:23:55;23.30;1.00
26907;DHT22;14472;56.880;16.658;2023-08-12T11:26:23;23.20;1.00
26907;DHT22;14472;56.880;16.658;2023-08-12T11:28:49;23.30;1.00
26907;DHT22;14472;56.880;16.658;2023-08-12T11:31:15;23.20;1.00
26907;DHT22;14472;56.880;16.658;2023-08-12T11:33:41;23.30;1.00
26907;DHT22;14472;56.880;16.658;2023-08-12T11:36:07;23.30;1.00
26907;DHT22;14472;56.880;16.658;2023-08-12T11:38:33;23.30;1.00
26907;DHT22;14472;56.880;16.658;2023-08-12T11:41:02;23.40;1.00
26907;DHT22;14472;56.880;16.658;2023-08-12T11:43:32;23.40;1.00
26907;DHT22;14472;56.880;16.658;2023-08-12T11:45:59;23.50;1.00
26907;DHT22;14472;56.880;16.658;2023-08-12T11:48:26;23.50;1.00
26907;DHT22;14472;56.880;16.658;2023-08-12T11:50:53;23.60;1.00
26907;DHT22;14472;56.880;16.658;2023-08-12T11:53:20;23.50;1.00
26907;DHT22;14472;56.880;16.658;2023-08-12T11:55:46;23.60;1.00
26907;DHT22;14472;56.880;16.658;2023-08-12T11:58:14;23.60;1.00
26907;DHT22;14472;56.880;16.658;2023-08-12T12:00:46;23.70;1.00
26907;DHT22;14472;56.880;16.658;2023-08-12T12:03:12;23.70;1.00
26907;DHT22;14472;56.880;16.658;2023-08-12T12:05:37;23.70;1.00
26907;DHT22;14472;56.880;16.658;2023-08-12T12:08:04;23.70;1.00
26907;DHT22;14472;56.880;16.658;2023-08-12T12:10:32;23.60;1.00
26907;DHT22;14472;56.880;16.658;2023-08-12T12:12:59;23.60;1.00
26907;DHT22;14472;56.880;16.658;2023-08-12T12:15:25;23.70;1.00
26907;DHT22;14472;56.880;16.658;2023-08-12T12:17:52;23.70;1.00
26907;DHT22;14472;56.880;16.658;2023-08-12T12:20:18;23.70;1.00
26907;DHT22;14472;56.880;16.658;2023-08-12T12:22:44;23.70;1.00
26907;DHT22;14472;56.880;16.658;2023-08-12T12:25:13;23.70;1.00
26907;DHT22;14472;56.880;16.658;2023-08-12T12:27:40;23.70;1.00
26907;DHT22;14472;56.880;16.658;2023-08-12T12:30:13;23.80;1.00
26907;DHT22;14472;56.880;16.658;2023-08-12T12:32:40;23.80;1.00
26907;DHT22;14472;56.880;16.658;2023-08-12T12:35:06;23.80;1.00
26907;DHT22;14472;56.880;16.658;2023-08-12T12:37:36;23.80;1.00
26907;DHT22;14472;56.880;16.658;2023-08-12T12:40:02;23.90;1.00
26907;DHT22;14472;56.880;16.658;2023-08-12T12:42:29;23.90;1.00
26907;DHT22;14472;56.880;16.658;2023-08-12T12:44:54;23.80;1.00
26907;DHT22;14472;56.880;16.658;2023-08-12T12:47:20;23.90;1.00
26907;DHT22;14472;56.880;16.658;2023-08-12T12:49:46;23.90;1.00
26907;DHT22;14472;56.880;16.658;2023-08-12T12:52:12;23.90;1.00
26907;DHT22;14472;56.880;16.658;2023-08-12T12:54:38;23.90;1.00
26907;DHT22;14472;56.880;16.658;2023-08-12T12:57:04;23.90;1.00
26907;DHT22;14472;56.880;16.658;2023-08-12T12:59:30;23.90;1.00
26907;DHT22;14472;56.880;16.658;2023-08-12T13:01:56;23.90;1.00
26907;DHT22;14472;56.880;16.658;2023-08-12T13:04:22;23.80;1.00
26907;DHT22;14472;56.880;16.658;2023-08-12T13:06:48;23.80;1.00
26907;DHT22;14472;56.880;16.658;2023-08-12T13:09:14;23.80;1.00
26907;DHT22;14472;56.880;16.658;2023-08-12T13:11:39;23.80;1.00
26907;DHT22;14472;56.880;16.658;2023-08-12T13:14:05;23.80;1.00
26907;DHT22;14472;56.880;16.658;2023-08-12T13:16:31;23.70;1.00
26907;DHT22;14472;56.880;16.658;2023-08-12T13:18:57;23.70;1.00
26907;DHT22;14472;56.880;16.658;2023-08-12T13:21:24;23.70;1.00
26907;DHT22;14472;56.880;16.658;2023-08-12T13:23:50;23.70;1.00
26907;DHT22;14472;56.880;16.658;2023-08-12T13:26:16;23.70;1.00
26907;DHT22;14472;56.880;16.658;2023-08-12T13:28:43;23.70;1.00
26907;DHT22;14472;56.880;16.658;2023-08-12T13:31:09;23.60;1.00
26907;DHT22;14472;56.880;16.658;2023-08-12T13:33:35;23.50;1.00
26907;DHT22;14472;56.880;16.658;2023-08-12T13:36:01;23.50;1.00
26907;DHT22;14472;56.880;16.658;2023-08-12T13:38:26;23.50;1.00
26907;DHT22;14472;56.880;16.658;2023-08-12T13:40:52;23.40;1.00
26907;DHT22;14472;56.880;16.658;2023-08-12T13:43:18;23.40;1.00
26907;DHT22;14472;56.880;16.658;2023-08-12T13:45:43;23.40;1.00
26907;DHT22;14472;56.880;16.658;2023-08-12T13:48:09;23.30;1.00
26907;DHT22;14472;56.880;16.658;2023-08-12T13:50:35;23.30;1.00
26907;DHT22;14472;56.880;16.658;2023-08-12T13:53:02;23.30;1.00
26907;DHT22;14472;56.880;16.658;2023-08-12T13:55:28;23.40;1.00
26907;DHT22;14472;56.880;16.658;2023-08-12T13:57:54;23.30;1.00
26907;DHT22;14472;56.880;16.658;2023-08-12T14:00:20;23.30;1.00
26907;DHT22;14472;56.880;16.658;2023-08-12T14:02:46;23.30;1.00
26907;DHT22;14472;56.880;16.658;2023-08-12T14:05:14;23.30;1.00
26907;DHT22;14472;56.880;16.658;2023-08-12T14:07:40;23.20;1.00
26907;DHT22;14472;56.880;16.658;2023-08-12T14:10:06;23.20;1.00
26907;DHT22;14472;56.880;16.658;2023-08-12T14:12:32;23.20;1.00
26907;DHT22;14472;56.880;16.658;2023-08-12T14:14:58;23.20;1.00
26907;DHT22;14472;56.880;16.658;2023-08-12T14:17:24;23.10;1.00
26907;DHT22;14472;56.880;16.658;2023-08-12T14:19:51;23.10;1.00
26907;DHT22;14472;56.880;16.658;2023-08-12T14:22:17;23.00;1.00
26907;DHT22;14472;56.880;16.658;2023-08-12T14:24:43;23.00;1.00
26907;DHT22;14472;56.880;16.658;2023-08-12T14:27:17;23.00;1.00
26907;DHT22;14472;56.880;16.658;2023-08-12T14:29:43;23.00;1.00
26907;DHT22;14472;56.880;16.658;2023-08-12T14:32:09;22.90;1.00
26907;DHT22;14472;56.880;16.658;2023-08-12T14:34:35;22.90;1.00
26907;DHT22;14472;56.880;16.658;2023-08-12T14:37:02;22.90;1.00
26907;DHT22;14472;56.880;16.658;2023-08-12T14:39:28;22.80;1.00
26907;DHT22;14472;56.880;16.658;2023-08-12T14:41:54;22.80;1.00
26907;DHT22;14472;56.880;16.658;2023-08-12T14:44:20;22.70;1.00
26907;DHT22;14472;56.880;16.658;2023-08-12T14:46:45;22.70;1.00
26907;DHT22;14472;56.880;16.658;2023-08-12T14:49:11;22.70;1.00
26907;DHT22;14472;56.880;16.658;2023-08-12T14:51:37;22.80;1.00
26907;DHT22;14472;56.880;16.658;2023-08-12T14:54:03;22.80;1.00
26907;DHT22;14472;56.880;16.658;2023-08-12T14:56:29;22.80;1.00
26907;DHT22;14472;56.880;16.658;2023-08-12T14:58:55;22.80;1.00
26907;DHT22;14472;56.880;16.658;2023-08-12T15:01:20;22.90;1.00
26907;DHT22;14472;56.880;16.658;2023-08-12T15:03:47;22.90;1.00
26907;DHT22;14472;56.880;16.658;2023-08-12T15:06:13;22.80;1.00
26907;DHT22;14472;56.880;16.658;2023-08-12T15:08:39;22.90;1.00
26907;DHT22;14472;56.880;16.658;2023-08-12T15:11:06;22.80;1.00
26907;DHT22;14472;56.880;16.658;2023-08-12T15:13:31;22.90;1.00
26907;DHT22;14472;56.880;16.658;2023-08-12T15:15:57;22.80;1.00
26907;DHT22;14472;56.880;16.658;2023-08-12T15:18:23;22.80;1.00
26907;DHT22;14472;56.880;16.658;2023-08-12T15:20:49;22.80;1.00
26907;DHT22;14472;56.880;16.658;2023-08-12T15:23:15;22.80;1.00
26907;DHT22;14472;56.880;16.658;2023-08-12T15:25:43;22.80;1.00